Time;durP1;ratioP1;P1;durP2;ratioP2;P2;SDS_P1;SDS_P2;PMS_P1;PMS_P2;Temp;Humidity;BMP_temperature;BMP_pressure;BME280_temperature;BME280_humidity;BME280_pressure;Samples;Min_cycle;Max_cycle;Signal;HPM_P1;HPM_P2
2022/01/15 00:01:32;;;;;;;20.87;7.43;;;3.20;78.10;;;;;;5111608;28;19908;-88
2022/01/15 00:03:57;;;;;;;20.35;6.60;;;3.10;77.90;;;;;;5110619;28;20065;-88
2022/01/15 00:06:23;;;;;;;;;;;3.10;78.20;;;;;;5110995;28;20023;-86
2022/01/15 00:08:49;;;;;;;17.20;6.93;;;3.10;78.40;;;;;;5112025;28;19953;-88
2022/01/15 00:11:14;;;;;;;;;;;3.10;78.30;;;;;;5108747;28;20051;-89
2022/01/15 00:13:43;;;;;;;20.60;6.87;;;3.00;78.40;;;;;;5107650;28;19912;-87
2022/01/15 00:16:27;;;;;;;20.47;7.97;;;2.90;78.20;;;;;;5107070;28;20123;-88
2022/01/15 00:21:47;;;;;;;14.73;4.40;;;2.80;78.50;;;;;;5096179;28;20470;-88
2022/01/15 00:24:15;;;;;;;;;;;2.80;78.60;;;;;;5100953;28;20017;-88
2022/01/15 00:26:40;;;;;;;22.17;7.53;;;2.80;78.60;;;;;;5103402;28;19920;-88
2022/01/15 00:29:06;;;;;;;;;;;2.80;78.30;;;;;;5106484;28;20103;-89
2022/01/15 00:31:34;;;;;;;12.60;4.83;;;2.70;78.40;;;;;;5106931;28;19915;-89
2022/01/15 00:33:59;;;;;;;5.47;2.80;;;2.70;78.30;;;;;;5101665;28;20496;-88
2022/01/15 00:36:25;;;;;;;;;;;2.70;78.40;;;;;;5107899;28;20031;-88
2022/01/15 00:38:50;;;;;;;22.83;7.47;;;2.70;78.60;;;;;;5108131;28;19908;-89
2022/01/15 00:41:17;;;;;;;;;;;2.70;78.30;;;;;;5110376;28;20032;-87
2022/01/15 00:43:43;;;;;;;19.25;5.13;;;2.70;78.40;;;;;;5110504;28;19960;-88
2022/01/15 00:46:09;;;;;;;21.83;6.55;;;2.70;78.20;;;;;;5104731;28;20027;-88
2022/01/15 00:48:34;;;;;;;20.58;5.63;;;2.70;78.20;;;;;;5111165;28;20092;-88
2022/01/15 00:51:00;;;;;;;;;;;2.70;78.30;;;;;;5111488;28;20043;-88
2022/01/15 00:53:25;;;;;;;24.13;6.90;;;2.70;78.40;;;;;;5100958;28;19956;-87
2022/01/15 00:55:51;;;;;;;;;;;2.60;78.20;;;;;;5100517;28;20480;-85
2022/01/15 00:58:16;;;;;;;17.90;7.37;;;2.60;78.30;;;;;;5105994;28;19908;-88
2022/01/15 01:00:43;;;;;;;;;;;2.60;78.20;;;;;;5109910;28;20453;-88
2022/01/15 01:03:09;;;;;;;27.60;9.15;;;2.60;78.40;;;;;;5098803;28;20353;-87
2022/01/15 01:05:34;;;;;;;;;;;2.60;78.10;;;;;;5106946;28;20073;-88
2022/01/15 01:08:00;;;;;;;19.93;7.33;;;2.70;78.30;;;;;;5102768;28;19915;-88
2022/01/15 01:22:30;;;;;;;17.67;7.73;;;2.60;78.40;;;;;;5108802;28;20035;-89
2022/01/15 01:24:29;;;;;;;22.88;8.48;;;2.60;78.30;;;;;;5103794;28;20031;-88
2022/01/15 01:27:02;;;;;;;;;;;2.70;78.30;;;;;;5111844;28;20034;-89
2022/01/15 01:29:40;;;;;;;26.80;10.30;;;2.80;78.30;;;;;;5107655;28;19933;-88
2022/01/15 01:32:11;;;;;;;26.90;9.00;;;2.80;77.90;;;;;;5109664;28;20045;-90
2022/01/15 01:34:41;;;;;;;27.43;9.47;;;2.80;77.90;;;;;;5102406;28;20504;-88
2022/01/15 01:37:18;;;;;;;22.67;8.27;;;2.80;77.90;;;;;;5113512;28;20329;-89
2022/01/15 01:45:13;;;;;;;31.47;9.37;;;3.00;77.40;;;;;;5108307;28;20040;-89
2022/01/15 01:47:43;;;;;;;27.63;8.90;;;3.00;77.40;;;;;;5082438;28;20043;-88
2022/01/15 01:50:10;;;;;;;27.70;8.70;;;3.10;77.20;;;;;;5112666;28;20511;-89
2022/01/15 01:52:36;;;;;;;22.13;7.87;;;3.10;77.20;;;;;;5110015;28;20037;-89
2022/01/15 01:55:02;;;;;;;;;;;3.10;77.00;;;;;;5113126;28;20023;-88
2022/01/15 01:57:28;;;;;;;15.83;4.77;;;3.20;77.00;;;;;;5107108;28;20026;-88
2022/01/15 01:59:53;;;;;;;;;;;3.20;76.60;;;;;;5109262;28;20059;-88
2022/01/15 02:02:19;;;;;;;18.70;6.77;;;3.20;76.70;;;;;;5112975;28;19908;-89
2022/01/15 02:04:44;;;;;;;21.50;6.68;;;3.20;76.40;;;;;;5114070;28;20028;-89
2022/01/15 02:07:10;;;;;;;20.92;5.80;;;3.10;76.50;;;;;;5109504;28;20130;-89
2022/01/15 02:09:36;;;;;;;17.73;5.80;;;3.10;76.30;;;;;;5112588;28;20024;-88
2022/01/15 02:12:02;;;;;;;19.17;6.32;;;3.20;76.10;;;;;;5114359;28;20110;-89
2022/01/15 02:14:28;;;;;;;;;;;3.10;76.20;;;;;;5111800;28;20016;-89
2022/01/15 02:16:54;;;;;;;25.30;7.17;;;3.10;76.20;;;;;;5110179;28;19908;-89
2022/01/15 02:19:20;;;;;;;12.33;4.63;;;3.10;76.10;;;;;;5100923;28;20027;-88
2022/01/15 02:24:17;;;;;;;18.33;5.97;;;3.10;76.00;;;;;;5108693;28;19908;-88
2022/01/15 02:26:42;;;;;;;;;;;3.10;75.70;;;;;;5107874;28;20472;-89
2022/01/15 02:29:09;;;;;;;11.80;5.43;;;3.10;75.90;;;;;;5105058;28;19951;-87
2022/01/15 02:31:36;;;;;;;23.07;8.23;;;3.00;75.70;;;;;;5107747;28;20062;-88
2022/01/15 02:34:04;;;;;;;25.97;7.83;;;3.00;75.90;;;;;;5109699;28;20031;-88
2022/01/15 02:36:32;;;;;;;21.57;7.23;;;2.90;75.90;;;;;;5104014;28;20028;-88
2022/01/15 02:38:58;;;;;;;19.07;7.83;;;2.90;76.10;;;;;;5110036;28;20379;-89
2022/01/15 02:41:25;;;;;;;;;;;2.90;76.10;;;;;;5110373;28;20038;-88
2022/01/15 02:43:51;;;;;;;24.42;8.32;;;2.90;76.10;;;;;;5114827;28;20305;-88
2022/01/15 02:48:56;;;;;;;18.13;6.37;;;2.80;75.90;;;;;;5102840;28;20028;-89
2022/01/15 02:51:27;;;;;;;25.37;7.93;;;2.80;75.90;;;;;;5102604;28;20454;-88
2022/01/15 02:53:56;;;;;;;21.10;7.93;;;2.80;75.90;;;;;;5104515;28;20106;-90
2022/01/15 02:56:34;;;;;;;22.73;6.20;;;2.70;75.90;;;;;;5113381;28;20084;-89
2022/01/15 02:59:01;;;;;;;18.93;6.27;;;2.70;76.00;;;;;;5103276;28;20052;-88
2022/01/15 03:01:26;;;;;;;27.73;9.43;;;2.70;76.00;;;;;;5113910;28;20023;-89
2022/01/15 03:03:52;;;;;;;;;;;2.70;76.00;;;;;;5109054;28;20558;-89
2022/01/15 03:06:19;;;;;;;22.90;7.80;;;2.80;76.00;;;;;;5111053;28;20269;-88
2022/01/15 03:08:46;;;;;;;25.40;8.47;;;2.80;75.70;;;;;;5105862;28;20114;-89
2022/01/15 03:11:12;;;;;;;31.30;8.60;;;2.70;75.80;;;;;;5106359;28;20028;-89
2022/01/15 03:13:40;;;;;;;33.60;10.47;;;2.60;75.90;;;;;;5109873;28;20020;-88
2022/01/15 03:16:11;;;;;;;34.03;11.30;;;2.60;76.10;;;;;;5093727;28;20036;-88
2022/01/15 03:18:37;;;;;;;25.97;8.73;;;2.50;76.20;;;;;;5113199;28;20484;-88
2022/01/15 03:21:03;;;;;;;;;;;2.60;76.20;;;;;;5107606;28;20085;-89
2022/01/15 03:23:28;;;;;;;19.80;7.10;;;2.60;76.20;;;;;;5100772;28;19953;-88
2022/01/15 03:25:54;;;;;;;24.45;8.23;;;2.50;75.90;;;;;;5111796;28;20125;-89
2022/01/15 03:28:20;;;;;;;;;;;2.50;76.00;;;;;;5111617;28;20036;-89
2022/01/15 03:30:45;;;;;;;15.93;4.93;;;2.50;76.10;;;;;;5101894;28;19999;-88
2022/01/15 03:33:11;;;;;;;;;;;2.50;75.90;;;;;;5116168;28;20023;-89
2022/01/15 03:35:37;;;;;;;24.80;7.63;;;2.40;76.00;;;;;;5109421;28;19998;-89
2022/01/15 03:38:04;;;;;;;25.80;7.53;;;2.40;75.90;;;;;;5113527;28;20068;-89
2022/01/15 03:40:30;;;;;;;25.20;7.17;;;2.30;76.20;;;;;;5097887;28;20119;-88
2022/01/15 03:42:56;;;;;;;;;;;2.20;76.40;;;;;;5114948;28;20046;-89
2022/01/15 03:45:22;;;;;;;19.57;6.03;;;2.20;76.50;;;;;;5114247;28;19912;-89
2022/01/15 03:47:48;;;;;;;18.92;7.10;;;2.20;76.40;;;;;;5110594;28;20032;-90
2022/01/15 03:50:13;;;;;;;;;;;2.10;76.50;;;;;;5113678;28;20047;-86
2022/01/15 03:52:39;;;;;;;16.57;6.20;;;2.10;76.70;;;;;;5107088;28;19916;-88
2022/01/15 03:55:06;;;;;;;21.67;8.10;;;2.10;76.50;;;;;;5113432;28;20035;-88
2022/01/15 03:57:32;;;;;;;18.30;5.87;;;2.10;76.60;;;;;;5105573;28;20373;-89
2022/01/15 04:00:00;;;;;;;;;;;2.10;76.80;;;;;;5106533;28;20107;-88
2022/01/15 04:02:26;;;;;;;26.97;7.40;;;2.10;76.80;;;;;;5113477;28;19959;-88
2022/01/15 04:04:51;;;;;;;;;;;2.10;76.60;;;;;;5113664;28;20388;-89
2022/01/15 04:07:17;;;;;;;18.80;5.73;;;2.10;76.70;;;;;;5106736;28;19918;-88
2022/01/15 04:09:42;;;;;;;11.70;5.80;;;2.20;76.50;;;;;;5097519;28;20031;-89
2022/01/15 04:12:08;;;;;;;24.88;7.72;;;2.20;76.60;;;;;;5111050;28;20027;-89
2022/01/15 04:14:33;;;;;;;;;;;2.20;76.70;;;;;;5107228;28;20024;-87
2022/01/15 04:16:59;;;;;;;22.40;8.30;;;2.20;76.70;;;;;;5104432;28;20038;-87
2022/01/15 04:19:25;;;;;;;;;;;2.20;76.50;;;;;;5109283;28;20027;-88
2022/01/15 04:21:51;;;;;;;19.37;6.43;;;2.10;76.60;;;;;;5113426;28;19914;-88
2022/01/15 04:24:17;;;;;;;;;;;2.10;76.60;;;;;;5108138;28;20452;-89
2022/01/15 04:26:43;;;;;;;14.57;5.83;;;2.00;76.80;;;;;;5106608;28;19938;-86
2022/01/15 04:29:08;;;;;;;;;;;2.00;76.70;;;;;;5098759;28;20024;-88
2022/01/15 04:31:48;;;;;;;16.57;6.00;;;1.90;76.80;;;;;;5109835;28;20380;-89
2022/01/15 04:34:43;;;;;;;14.20;4.70;;;1.90;76.70;;;;;;5102959;28;20039;-89
2022/01/15 04:37:19;;;;;;;19.30;6.43;;;1.80;77.00;;;;;;5098809;28;20032;-87
2022/01/15 04:39:45;;;;;;;19.33;7.78;;;1.80;77.00;;;;;;5101080;28;20023;-88
2022/01/15 04:42:12;;;;;;;20.60;8.70;;;1.70;77.10;;;;;;5109944;28;20396;-88
2022/01/15 04:44:38;;;;;;;19.33;7.83;;;1.70;77.20;;;;;;5105985;28;20027;-88
2022/01/15 04:47:04;;;;;;;;;;;1.60;77.30;;;;;;5108003;28;20024;-89
2022/01/15 04:49:33;;;;;;;16.93;5.93;;;1.50;77.40;;;;;;5103350;28;19914;-88
2022/01/15 04:51:59;;;;;;;12.77;5.40;;;1.50;77.30;;;;;;5106754;28;20099;-88
2022/01/15 04:54:25;;;;;;;17.87;7.23;;;1.40;77.50;;;;;;5104326;28;20012;-88
2022/01/15 04:56:50;;;;;;;;;;;1.40;77.60;;;;;;5111047;28;20053;-88
2022/01/15 04:59:16;;;;;;;20.57;8.13;;;1.40;77.70;;;;;;5109693;28;19908;-89
2022/01/15 05:01:41;;;;;;;;;;;1.30;77.60;;;;;;5110029;28;20024;-89
2022/01/15 05:04:07;;;;;;;10.77;5.23;;;1.30;77.90;;;;;;5103541;28;19908;-87
2022/01/15 05:06:33;;;;;;;11.93;5.38;;;1.30;77.70;;;;;;5109620;28;20023;-89
2022/01/15 05:09:05;;;;;;;;;;;1.20;77.90;;;;;;5108238;28;20027;-89
2022/01/15 05:14:19;;;;;;;31.33;11.17;;;1.30;77.90;;;;;;5080077;28;20028;-87
2022/01/15 05:16:45;;;;;;;;;;;1.20;78.00;;;;;;5108647;28;20039;-89
2022/01/15 05:19:10;;;;;;;36.20;10.70;;;1.20;78.20;;;;;;5108506;28;19922;-89
2022/01/15 05:21:37;;;;;;;;;;;1.20;78.00;;;;;;5107652;28;20065;-88
2022/01/15 05:24:02;;;;;;;21.13;9.53;;;1.20;78.30;;;;;;5101458;28;19915;-87
2022/01/15 05:26:28;;;;;;;;;;;1.30;78.10;;;;;;5108310;28;20024;-88
2022/01/15 05:28:53;;;;;;;14.30;6.63;;;1.30;78.20;;;;;;5107194;28;19914;-88
2022/01/15 05:31:19;;;;;;;21.83;8.35;;;1.40;78.00;;;;;;5099786;28;20028;-88
2022/01/15 05:33:45;;;;;;;24.48;9.35;;;1.40;78.00;;;;;;5111405;28;20138;-88
2022/01/15 05:36:11;;;;;;;18.77;8.00;;;1.40;78.10;;;;;;5112702;28;20016;-87
2022/01/15 05:38:37;;;;;;;16.80;7.03;;;1.40;78.20;;;;;;5108473;28;20019;-87
2022/01/15 05:41:02;;;;;;;;;;;1.40;78.10;;;;;;5109778;28;20419;-86
2022/01/15 05:43:28;;;;;;;3.80;2.57;;;1.50;78.10;;;;;;5104705;28;19961;-88
2022/01/15 05:45:53;;;;;;;;;;;1.40;77.90;;;;;;5106672;28;20027;-88
2022/01/15 05:48:19;;;;;;;25.57;8.20;;;1.50;78.00;;;;;;5107258;28;20288;-88
2022/01/15 05:50:44;;;;;;;17.65;5.63;;;1.50;77.80;;;;;;5110370;28;20034;-89
2022/01/15 05:53:10;;;;;;;;;;;1.50;77.90;;;;;;5106560;28;20027;-87
2022/01/15 05:55:36;;;;;;;12.80;4.90;;;1.60;77.90;;;;;;5107080;28;19908;-87
2022/01/15 05:58:01;;;;;;;19.63;7.50;;;1.60;77.70;;;;;;5111765;28;20022;-86
2022/01/15 06:00:27;;;;;;;19.00;6.53;;;1.70;77.70;;;;;;5102184;28;20111;-86
2022/01/15 06:02:52;;;;;;;;;;;1.80;77.60;;;;;;5101914;28;20034;-88
2022/01/15 06:05:18;;;;;;;20.37;7.77;;;1.80;77.50;;;;;;5106473;28;20002;-89
2022/01/15 06:07:43;;;;;;;;;;;1.80;77.20;;;;;;5103879;28;20060;-89
2022/01/15 06:10:09;;;;;;;22.73;7.00;;;1.80;77.30;;;;;;5106842;28;19904;-88
2022/01/15 06:12:42;;;;;;;15.95;6.57;;;1.80;77.20;;;;;;5106991;28;20042;-87
2022/01/15 06:15:09;;;;;;;23.27;9.17;;;1.80;77.10;;;;;;5111650;28;20073;-88
2022/01/15 06:17:34;;;;;;;18.20;7.47;;;1.80;77.20;;;;;;5111411;28;20442;-87
2022/01/15 06:20:00;;;;;;;;;;;1.80;77.20;;;;;;5110559;28;20032;-88
2022/01/15 06:22:25;;;;;;;18.10;7.60;;;1.90;77.10;;;;;;5114686;28;20272;-88
2022/01/15 06:24:51;;;;;;;;;;;1.90;76.70;;;;;;5114612;28;20031;-88
2022/01/15 06:27:19;;;;;;;13.17;5.10;;;1.90;76.80;;;;;;5109306;28;20344;-88
2022/01/15 06:29:44;;;;;;;10.20;4.20;;;2.00;76.60;;;;;;5118469;28;20030;-88
2022/01/15 06:32:10;;;;;;;;;;;2.00;76.70;;;;;;5109081;28;20445;-88
2022/01/15 06:34:36;;;;;;;22.53;8.53;;;2.10;76.50;;;;;;5110063;28;19915;-88
2022/01/15 06:37:01;;;;;;;18.20;7.97;;;2.10;76.30;;;;;;5109153;28;20353;-88
2022/01/15 06:39:27;;;;;;;;;;;2.00;76.50;;;;;;5110062;28;20061;-88
2022/01/15 06:41:52;;;;;;;32.33;14.00;;;2.00;76.60;;;;;;5111095;28;19908;-88
2022/01/15 06:44:18;;;;;;;;;;;2.00;76.30;;;;;;5110464;28;20028;-88
2022/01/15 06:46:43;;;;;;;54.87;21.73;;;1.90;76.40;;;;;;5105989;28;20359;-88
2022/01/15 06:49:10;;;;;;;;;;;1.90;76.30;;;;;;5112633;28;20027;-88
2022/01/15 06:51:35;;;;;;;28.83;11.77;;;1.90;76.50;;;;;;5102540;28;19908;-88
2022/01/15 06:54:01;;;;;;;;;;;1.90;76.40;;;;;;5109983;28;20076;-88
2022/01/15 06:56:27;;;;;;;21.27;9.53;;;1.80;76.70;;;;;;5108856;28;20310;-88
2022/01/15 06:58:53;;;;;;;30.80;11.00;;;1.80;76.50;;;;;;5111429;28;20047;-89
2022/01/15 07:01:18;;;;;;;;;;;1.80;76.70;;;;;;5109105;28;20035;-88
2022/01/15 07:03:44;;;;;;;14.23;6.83;;;1.80;76.70;;;;;;5106164;28;19948;-89
2022/01/15 07:06:10;;;;;;;14.40;5.57;;;1.80;76.50;;;;;;5117967;28;20483;-89
2022/01/15 07:08:35;;;;;;;;;;;1.80;76.60;;;;;;5116969;28;20024;-88
2022/01/15 07:11:01;;;;;;;13.00;5.80;;;1.80;76.70;;;;;;5115000;28;19912;-87
2022/01/15 07:13:29;;;;;;;;;;;1.80;76.50;;;;;;5114025;28;20031;-87
2022/01/15 07:15:55;;;;;;;12.87;5.37;;;1.80;76.80;;;;;;5113368;28;19912;-88
2022/01/15 07:18:20;;;;;;;;;;;1.80;76.70;;;;;;5109835;28;20042;-88
2022/01/15 07:20:46;;;;;;;13.67;5.20;;;1.70;76.90;;;;;;5112099;28;19914;-88
2022/01/15 07:23:12;;;;;;;;;;;1.70;76.80;;;;;;5109298;28;20028;-88
2022/01/15 07:25:37;;;;;;;20.70;7.17;;;1.70;77.00;;;;;;5109125;28;19907;-88
2022/01/15 07:28:03;;;;;;;;;;;1.60;76.90;;;;;;5112572;28;20080;-88
2022/01/15 07:30:29;;;;;;;22.10;5.67;;;1.60;77.10;;;;;;5107600;28;19908;-89
2022/01/15 07:32:54;;;;;;;;;;;1.70;76.80;;;;;;5117812;28;20114;-88
2022/01/15 07:35:19;;;;;;;15.70;5.50;;;1.60;77.00;;;;;;5098551;28;20429;-88
2022/01/15 07:37:45;;;;;;;13.70;5.60;;;1.60;76.90;;;;;;5105073;28;20024;-89
2022/01/15 07:40:11;;;;;;;;;;;1.60;77.10;;;;;;5110872;28;20119;-89
2022/01/15 07:42:39;;;;;;;15.23;6.67;;;1.60;77.30;;;;;;5112783;28;19961;-89
2022/01/15 07:45:10;;;;;;;18.43;6.80;;;1.70;77.20;;;;;;5113219;28;20085;-88
2022/01/15 07:47:37;;;;;;;20.53;6.43;;;1.70;77.30;;;;;;5111208;28;20064;-89
2022/01/15 07:50:08;;;;;;;33.87;10.30;;;1.70;77.30;;;;;;5114151;28;20547;-88
2022/01/15 07:52:34;;;;;;;22.10;9.83;;;1.70;77.40;;;;;;5106839;28;20013;-88
2022/01/15 07:55:00;;;;;;;;;;;1.80;77.40;;;;;;5108015;28;20043;-86
2022/01/15 07:57:26;;;;;;;9.90;3.83;;;1.80;77.40;;;;;;5104873;28;19907;-89
2022/01/15 07:59:52;;;;;;;11.47;5.27;;;1.90;76.90;;;;;;5109697;28;20020;-89
2022/01/15 08:02:17;;;;;;;;;;;1.90;76.90;;;;;;5103839;28;20065;-89
2022/01/15 08:04:43;;;;;;;20.63;7.20;;;1.90;76.80;;;;;;5110893;28;19946;-88
2022/01/15 08:07:09;;;;;;;30.73;9.88;;;1.90;76.60;;;;;;5103660;28;20480;-88
2022/01/15 08:09:35;;;;;;;23.65;8.48;;;1.90;76.70;;;;;;5108219;28;20543;-88
2022/01/15 08:12:02;;;;;;;28.67;9.17;;;1.90;76.70;;;;;;5104126;28;20020;-88
2022/01/15 08:14:27;;;;;;;18.70;6.90;;;1.90;76.70;;;;;;5108289;28;20022;-88
2022/01/15 08:16:53;;;;;;;;;;;1.90;76.70;;;;;;5109551;28;20392;-88
2022/01/15 08:19:18;;;;;;;11.33;4.57;;;1.90;76.70;;;;;;5104046;28;19912;-88
2022/01/15 08:21:44;;;;;;;26.52;8.52;;;2.00;76.50;;;;;;5106156;28;20559;-88
2022/01/15 08:24:10;;;;;;;;;;;2.00;76.70;;;;;;5100303;28;20015;-88
2022/01/15 08:26:36;;;;;;;23.87;7.40;;;2.00;76.70;;;;;;5100137;28;19938;-87
2022/01/15 08:29:02;;;;;;;;;;;2.10;76.40;;;;;;5116664;28;20019;-87
2022/01/15 08:31:27;;;;;;;10.70;4.47;;;2.10;76.40;;;;;;5095930;28;20331;-88
2022/01/15 08:33:53;;;;;;;16.20;6.00;;;2.10;76.10;;;;;;5106173;28;20053;-88
2022/01/15 08:36:20;;;;;;;;;;;2.20;76.20;;;;;;5116830;28;20502;-88
2022/01/15 08:38:46;;;;;;;11.45;5.50;;;2.20;76.20;;;;;;5110679;28;19961;-87
2022/01/15 08:41:13;;;;;;;;;;;2.20;76.00;;;;;;5117572;28;20035;-88
2022/01/15 08:43:39;;;;;;;30.08;9.02;;;2.20;76.00;;;;;;5104787;28;19998;-89
2022/01/15 08:46:05;;;;;;;13.60;5.77;;;2.30;75.80;;;;;;5106603;28;20027;-89
2022/01/15 08:48:30;;;;;;;;;;;2.30;75.90;;;;;;5107852;28;20019;-89
2022/01/15 08:50:56;;;;;;;10.37;3.47;;;2.30;76.00;;;;;;5116266;28;19949;-89
2022/01/15 08:53:22;;;;;;;15.48;7.30;;;2.30;75.60;;;;;;5110280;28;20065;-89
2022/01/15 08:55:48;;;;;;;16.58;6.78;;;2.30;75.70;;;;;;5104672;28;20020;-89
2022/01/15 08:58:13;;;;;;;;;;;2.30;75.40;;;;;;5106465;28;20059;-89
2022/01/15 09:00:40;;;;;;;24.30;8.90;;;2.40;75.50;;;;;;5105404;28;19908;-89
2022/01/15 09:03:07;;;;;;;12.83;5.77;;;2.40;75.40;;;;;;5104132;28;20023;-88
2022/01/15 09:05:36;;;;;;;14.83;5.63;;;2.40;75.50;;;;;;5101741;28;20043;-89
2022/01/15 09:08:04;;;;;;;19.97;6.37;;;2.40;75.40;;;;;;5102352;28;20572;-88
2022/01/15 09:10:29;;;;;;;22.47;6.87;;;2.50;75.20;;;;;;5107453;28;20035;-89
2022/01/15 09:12:55;;;;;;;;;;;2.50;75.10;;;;;;5107586;28;20027;-90
2022/01/15 09:15:21;;;;;;;18.47;6.17;;;2.60;74.80;;;;;;5104427;28;20458;-89
2022/01/15 09:17:47;;;;;;;8.80;4.00;;;2.60;74.40;;;;;;5109602;28;20043;-88
2022/01/15 09:20:13;;;;;;;;;;;2.60;74.30;;;;;;5108463;28;20020;-88
2022/01/15 09:22:38;;;;;;;11.83;5.90;;;2.70;74.40;;;;;;5099013;28;19908;-91
2022/01/15 09:25:05;;;;;;;10.55;4.80;;;2.80;73.80;;;;;;5109698;28;20024;-87
2022/01/15 09:30:15;;;;;;;13.13;4.30;;;2.80;73.40;;;;;;5106201;28;20050;-90
2022/01/15 09:32:53;;;;;;;29.67;9.30;;;2.80;73.40;;;;;;5108715;28;20016;-86
2022/01/15 09:35:21;;;;;;;20.00;7.03;;;2.80;73.60;;;;;;5103826;28;20031;-88
2022/01/15 09:37:49;;;;;;;20.93;8.10;;;2.90;73.50;;;;;;5109469;28;20019;-88
2022/01/15 09:40:15;;;;;;;11.47;4.90;;;3.00;73.30;;;;;;5101029;28;20032;-88
2022/01/15 09:42:41;;;;;;;;;;;3.10;72.90;;;;;;5102645;28;20034;-89
2022/01/15 09:45:08;;;;;;;14.13;4.87;;;3.20;72.60;;;;;;5107037;28;19914;-89
2022/01/15 09:47:34;;;;;;;21.13;8.30;;;3.30;72.20;;;;;;5115438;28;20028;-85
2022/01/15 09:50:00;;;;;;;;;;;3.30;71.90;;;;;;5102757;28;20081;-89
2022/01/15 09:52:27;;;;;;;19.10;5.50;;;3.40;71.70;;;;;;5111213;28;19915;-88
2022/01/15 09:54:53;;;;;;;11.13;4.53;;;3.50;71.00;;;;;;5108708;28;20032;-88
2022/01/15 09:57:18;;;;;;;;;;;3.50;70.50;;;;;;5111498;28;20829;-88
2022/01/15 09:59:44;;;;;;;12.50;5.33;;;3.60;70.40;;;;;;5111800;28;20010;-88
2022/01/15 10:02:10;;;;;;;;;;;3.70;70.20;;;;;;5110528;28;20019;-89
2022/01/15 10:04:35;;;;;;;23.10;7.20;;;3.80;69.60;;;;;;5110641;28;19917;-89
2022/01/15 10:07:15;;;;;;;10.48;5.45;;;3.80;68.50;;;;;;5108809;28;20028;-89
2022/01/15 10:09:43;;;;;;;25.20;8.90;;;3.90;68.30;;;;;;5110845;28;20028;-89
2022/01/15 10:12:09;;;;;;;18.57;6.50;;;4.10;68.00;;;;;;5111774;28;20052;-88
2022/01/15 10:14:37;;;;;;;11.77;4.90;;;4.60;67.20;;;;;;5110536;28;20035;-90
2022/01/15 10:17:24;;;;;;;23.57;7.03;;;5.30;65.80;;;;;;5117755;28;20075;-85
2022/01/15 10:19:50;;;;;;;10.52;4.55;;;6.10;64.00;;;;;;5110801;28;20024;-86
2022/01/15 10:22:17;;;;;;;;;;;6.90;60.20;;;;;;5111342;28;20015;-86
2022/01/15 10:24:59;;;;;;;11.93;5.20;;;7.50;59.70;;;;;;5112033;28;19907;-86
2022/01/15 10:27:35;;;;;;;18.03;7.03;;;8.20;57.30;;;;;;5110805;28;20106;-86
2022/01/15 10:30:14;;;;;;;17.80;6.63;;;8.70;55.50;;;;;;5109410;28;20094;-86
2022/01/15 10:33:01;;;;;;;19.17;5.93;;;9.20;55.20;;;;;;5113113;28;20020;-86
2022/01/15 10:35:37;;;;;;;16.08;6.75;;;9.90;54.50;;;;;;5098330;28;20485;-86
2022/01/15 10:38:12;;;;;;;18.10;6.75;;;10.70;51.70;;;;;;5103002;28;20020;-88
2022/01/15 10:40:47;;;;;;;14.52;5.93;;;11.30;50.60;;;;;;5115079;28;20097;-87
2022/01/15 10:43:17;;;;;;;14.07;5.43;;;11.70;48.90;;;;;;5104609;28;20047;-87
2022/01/15 10:45:47;;;;;;;11.55;5.65;;;12.10;48.00;;;;;;5108902;28;20522;-87
2022/01/15 10:48:20;;;;;;;21.80;9.13;;;12.60;47.40;;;;;;5113149;28;20495;-87
2022/01/15 10:50:55;;;;;;;16.90;7.05;;;13.10;45.60;;;;;;5101627;28;20046;-87
2022/01/15 10:53:36;;;;;;;12.30;5.80;;;13.20;44.10;;;;;;5105495;28;20024;-87
2022/01/15 10:56:03;;;;;;;17.77;6.75;;;13.20;43.20;;;;;;5107709;28;20019;-87
2022/01/15 10:58:28;;;;;;;11.20;4.60;;;13.00;43.00;;;;;;5101509;28;20031;-86
2022/01/15 11:00:54;;;;;;;;;;;12.70;41.50;;;;;;5108596;28;20023;-86
2022/01/15 11:03:22;;;;;;;19.27;5.85;;;12.20;40.80;;;;;;5099857;28;20411;-86
2022/01/15 11:05:52;;;;;;;12.95;5.25;;;11.80;41.80;;;;;;5109833;28;20020;-86
2022/01/15 11:08:26;;;;;;;14.48;5.30;;;11.40;42.00;;;;;;5111942;28;20027;-87
2022/01/15 11:11:04;;;;;;;14.88;4.43;;;11.10;43.50;;;;;;5110949;28;20024;-87
2022/01/15 11:13:35;;;;;;;10.52;4.45;;;10.80;44.10;;;;;;5099143;28;20464;-89
2022/01/15 11:16:05;;;;;;;15.95;5.75;;;10.70;44.50;;;;;;5112341;28;20020;-89
2022/01/15 11:18:33;;;;;;;15.80;6.00;;;10.40;44.50;;;;;;5111299;28;20127;-89
2022/01/15 11:21:04;;;;;;;15.05;4.50;;;10.10;44.30;;;;;;5110036;28;20536;-90
2022/01/15 11:23:31;;;;;;;15.20;4.57;;;9.80;44.50;;;;;;5100767;28;20024;-89
2022/01/15 11:26:01;;;;;;;8.30;3.10;;;9.70;44.90;;;;;;5110420;28;20036;-87
2022/01/15 11:28:29;;;;;;;8.50;2.90;;;9.30;45.30;;;;;;5111943;28;20396;-90
2022/01/15 11:31:01;;;;;;;14.13;4.20;;;9.00;45.40;;;;;;5117433;28;20058;-91
2022/01/15 11:33:30;;;;;;;16.13;5.18;;;8.80;45.20;;;;;;5105240;28;20024;-90
2022/01/15 11:35:55;;;;;;;18.63;4.53;;;8.80;45.70;;;;;;5108079;28;20027;-90
2022/01/15 11:38:33;;;;;;;;;;;9.10;45.50;;;;;;5111833;28;20024;-90
2022/01/15 11:40:59;;;;;;;6.60;3.72;;;9.40;45.20;;;;;;5112939;28;19945;-90
2022/01/15 11:43:24;;;;;;;;;;;9.50;45.10;;;;;;5106873;28;20077;-90
2022/01/15 11:45:58;;;;;;;14.35;5.07;;;9.40;45.10;;;;;;5115634;28;19918;-91
2022/01/15 11:48:25;;;;;;;17.65;5.35;;;9.20;44.80;;;;;;5113339;28;20015;-91
2022/01/15 11:51:17;;;;;;;13.73;5.05;;;8.90;45.50;;;;;;5110325;28;20027;-90
2022/01/15 11:54:01;;;;;;;16.77;6.35;;;8.60;45.70;;;;;;5111150;28;20031;-90
2022/01/15 11:56:28;;;;;;;13.45;5.75;;;8.40;46.20;;;;;;5114206;28;20068;-89
2022/01/15 11:59:17;;;;;;;21.17;7.10;;;8.40;46.50;;;;;;5113012;28;20024;-89
2022/01/15 12:01:43;;;;;;;14.15;5.28;;;8.20;47.00;;;;;;5107125;28;20427;-89
2022/01/15 12:04:27;;;;;;;;;;;8.00;47.40;;;;;;5112173;28;20019;-90
2022/01/15 12:07:07;;;;;;;15.13;5.47;;;7.80;47.40;;;;;;5103185;28;20343;-91
2022/01/15 12:09:34;;;;;;;6.10;2.57;;;7.60;47.80;;;;;;5110647;28;20046;-89
2022/01/15 12:12:02;;;;;;;10.07;4.17;;;7.60;48.20;;;;;;5107624;28;20170;-91
2022/01/15 12:14:46;;;;;;;12.63;4.90;;;7.70;48.30;;;;;;5105847;28;20654;-89
2022/01/15 12:17:47;;;;;;;14.40;5.00;;;7.90;48.20;;;;;;5103723;28;20113;-89
2022/01/15 12:20:19;;;;;;;19.90;6.53;;;8.30;47.60;;;;;;5109301;28;20102;-90
2022/01/15 12:22:53;;;;;;;14.98;5.32;;;8.50;47.00;;;;;;5113546;28;20036;-91
2022/01/15 12:25:18;;;;;;;17.27;6.13;;;8.70;46.40;;;;;;5114052;28;20115;-90
2022/01/15 12:27:48;;;;;;;;;;;9.10;46.10;;;;;;5109960;28;20063;-89
2022/01/15 12:30:22;;;;;;;14.10;4.90;;;9.60;45.70;;;;;;5107892;28;19907;-90
2022/01/15 12:32:50;;;;;;;19.10;7.47;;;10.40;44.80;;;;;;5106960;28;20039;-90
2022/01/15 12:35:20;;;;;;;17.48;5.88;;;11.30;43.70;;;;;;5101013;28;20059;-88
2022/01/15 12:37:58;;;;;;;12.68;5.55;;;12.20;42.30;;;;;;5109156;28;20018;-86
2022/01/15 12:40:41;;;;;;;19.70;7.47;;;12.70;40.40;;;;;;5102063;28;20031;-89
2022/01/15 12:43:11;;;;;;;19.17;6.97;;;13.20;39.40;;;;;;5106544;28;20586;-90
2022/01/15 12:45:39;;;;;;;19.48;7.00;;;13.60;38.90;;;;;;5102218;28;20051;-90
2022/01/15 12:48:07;;;;;;;15.75;6.25;;;14.10;38.50;;;;;;5110063;28;20038;-90
2022/01/15 12:51:00;;;;;;;15.02;6.55;;;14.50;38.00;;;;;;5100064;28;20028;-90
2022/01/15 12:53:32;;;;;;;20.05;7.05;;;14.80;37.20;;;;;;5104844;28;20024;-89
2022/01/15 12:55:58;;;;;;;13.10;5.05;;;14.90;36.30;;;;;;5099019;28;20457;-89
2022/01/15 12:58:26;;;;;;;19.70;6.38;;;15.00;35.70;;;;;;5103006;28;20024;-88
2022/01/15 13:00:52;;;;;;;17.27;6.68;;;14.90;35.50;;;;;;5107747;28;20036;-88
2022/01/15 13:03:21;;;;;;;20.33;8.45;;;14.90;35.60;;;;;;5112841;28;20448;-89
2022/01/15 13:05:52;;;;;;;15.38;5.97;;;14.70;35.10;;;;;;5109002;28;20061;-90
2022/01/15 13:08:24;;;;;;;18.98;6.88;;;13.90;36.10;;;;;;5111520;28;20480;-90
2022/01/15 13:10:57;;;;;;;15.63;5.57;;;12.90;36.80;;;;;;5109469;28;20030;-89
2022/01/15 13:13:27;;;;;;;20.60;6.95;;;11.90;37.90;;;;;;5107466;28;20021;-89
2022/01/15 13:16:18;;;;;;;23.73;8.30;;;11.10;38.90;;;;;;5099499;28;20025;-89
2022/01/15 13:18:46;;;;;;;23.27;8.60;;;10.30;40.20;;;;;;5111279;28;20493;-89
2022/01/15 13:21:17;;;;;;;16.48;6.55;;;9.70;40.90;;;;;;5115102;28;20116;-89
2022/01/15 13:23:48;;;;;;;14.73;6.22;;;9.10;41.60;;;;;;5109229;28;20055;-90
2022/01/15 13:26:19;;;;;;;24.77;8.40;;;8.60;42.50;;;;;;5114064;28;20384;-90
2022/01/15 13:28:45;;;;;;;13.50;4.53;;;8.10;43.30;;;;;;5110962;28;20035;-90
2022/01/15 13:31:12;;;;;;;;;;;7.70;44.10;;;;;;5107867;28;20012;-89
2022/01/15 13:33:43;;;;;;;27.75;8.68;;;7.50;44.70;;;;;;5111256;28;19951;-90
2022/01/15 13:39:34;;;;;;;26.63;8.43;;;6.90;46.10;;;;;;5094786;28;20138;-91
2022/01/15 13:42:00;;;;;;;18.97;6.13;;;6.80;46.70;;;;;;5119475;28;20494;-91
2022/01/15 13:44:30;;;;;;;;;;;6.60;47.50;;;;;;5105076;28;20024;-92
2022/01/15 13:46:55;;;;;;;21.80;6.93;;;6.40;48.00;;;;;;5118409;28;19916;-93